Live aus Altenrhein
LIVE
LSZR 230220Z AUTO 19002KT 9999 NSC 03/03 Q1014

People´s Info Center:

Öffnungszeiten Mo-Fr, 8-18 Uhr

 

info@peoples.ch

 
Aus Österreich:

T: +43 (0)5572 203 610

 

Aus CH / LI / DE:

T: +41 (0)71 858 51 60

 

Webcam Flughafen St.Gallen-Altenrhein

Live-Bilder und Zeitraffer LSZR / ACH.

 

Live aus Altenrhein
LIVE
LSZR 230220Z AUTO 19002KT 9999 NSC 03/03 Q1014
Zeitraffer heute
2017-02-23 00:14:56
LSZR 222250Z AUTO VRB02KT 9999 BKN060 SCT110 BKN130 08/05 Q1015
Zeitraffer gestern
2017-02-22 00:14:58
LSZR 212250Z AUTO VRB02KT 9999 OVC027 09/07 Q1020
Zeitraffer vor 3 Tagen
2017-02-20 00:00:01
LSZR 192250Z AUTO 27008KT CAVOK 08/01 Q1024